»·PEaware :: N583SC KSLC-KDTA

N583SC :: KSLC-KDTA

FLIGHT INFORMATION

Flight Status: Arrived
Operator: Privately registered:
United States
More flights under this callsign
Pilot: Scott G. (88)
Aircraft: CESSNA 172 SKYHAWK
(C172)
More flights by this aircraft type
Origin: KSLC Salt Lake City Intl
United States
Destination: KDTA Delta Mun
United States
More flights between these airports :: More routes between these airports
Route: DCT
File this flight plan on PilotEdge
Remarks:
Altitude:
(Current/Filed)
8,500ft
Speed:
(Current/Filed)
110kts
Departed: 16-Feb-18 09:19 AM
Arrived: 16-Feb-18 10:13 AM
Distance/Time
Traveled:
88nm/0:53
Distance/Time
To Go:
Arrived

Flight Plot

Page will automatically refresh every two minutes.

Flight plan parsing failed; only flown route is shown


Map Options




Map Legend


Flown Route
Filed Route
Departure Airport
Arrival Airport
Navaid (VOR, NDB)
Fix

Horizontal Profiles

Position Reports

Time Latitude Longitude Heading Altitude Ground
Speed
16-Feb-18 09:09 40.776394 -111.958748 178 4231ft 0kts
16-Feb-18 09:10 40.776394 -111.958748 178 4231ft 0kts
16-Feb-18 09:11 40.776394 -111.958748 178 4231ft 0kts
16-Feb-18 09:12 40.776394 -111.958748 178 4231ft 0kts
16-Feb-18 09:13 40.776394 -111.958748 178 4231ft 0kts
16-Feb-18 09:14 40.776375 -111.958748 175 4231ft 0kts
16-Feb-18 09:15 40.776198 -111.959866 271 4231ft 0kts
16-Feb-18 09:16 40.776198 -111.959866 271 4231ft 0kts
16-Feb-18 09:17 40.776198 -111.959866 271 4231ft 0kts
16-Feb-18 09:18 40.776198 -111.959866 271 4231ft 0kts
16-Feb-18 09:19 40.776734 -111.960114 356 4231ft 12kts
16-Feb-18 09:20 40.783403 -111.960027 359 4231ft 32kts
16-Feb-18 09:21 40.793515 -111.960020 359 4231ft 39kts
16-Feb-18 09:22 40.799347 -111.960146 178 4231ft 0kts
16-Feb-18 09:23 40.799347 -111.960146 178 4231ft 0kts
16-Feb-18 09:24 40.799347 -111.960146 178 4231ft 0kts
16-Feb-18 09:25 40.798993 -111.961188 281 4231ft 11kts
16-Feb-18 09:26 40.794382 -111.962103 180 4263ft 64kts
16-Feb-18 09:27 40.776903 -111.959345 178 5020ft 67kts
16-Feb-18 09:28 40.757367 -111.958257 174 5736ft 73kts
16-Feb-18 09:29 40.736264 -111.952763 175 6357ft 82kts
16-Feb-18 09:30 40.710377 -111.950046 176 6399ft 104kts
16-Feb-18 09:31 40.681061 -111.946348 178 6398ft 106kts
16-Feb-18 09:32 40.651557 -111.941718 166 6398ft 108kts
16-Feb-18 09:33 40.623107 -111.927940 164 6399ft 109kts
16-Feb-18 09:34 40.594581 -111.914586 173 6404ft 108kts
16-Feb-18 09:35 40.564852 -111.910059 177 6409ft 107kts
16-Feb-18 09:36 40.535408 -111.905879 177 6414ft 107kts
16-Feb-18 09:37 40.505717 -111.904443 184 6419ft 106kts
16-Feb-18 09:38 40.477007 -111.905458 184 6591ft 99kts
16-Feb-18 09:39 40.456326 -111.905963 183 6818ft 98kts
16-Feb-18 09:40 40.428853 -111.904537 174 7119ft 100kts
16-Feb-18 09:41 40.401373 -111.897969 174 7419ft 100kts
16-Feb-18 09:42 40.373879 -111.891221 174 7719ft 100kts
16-Feb-18 09:43 40.346165 -111.884265 174 7999ft 101kts
16-Feb-18 09:44 40.318437 -111.877223 180 8297ft 100kts
16-Feb-18 09:45 40.291033 -111.881449 192 8526ft 103kts
16-Feb-18 09:46 40.261859 -111.886850 192 8526ft 105kts
16-Feb-18 09:47 40.232887 -111.892197 192 8526ft 105kts
16-Feb-18 09:48 40.205752 -111.904492 208 8526ft 103kts
16-Feb-18 09:49 40.180170 -111.921969 210 8526ft 103kts
16-Feb-18 09:50 40.159247 -111.937003 211 8526ft 103kts
16-Feb-18 09:51 40.129958 -111.958392 211 8525ft 103kts
16-Feb-18 09:52 40.103886 -111.974248 201 8525ft 104kts
16-Feb-18 09:53 40.081057 -111.984466 202 8525ft 104kts
16-Feb-18 09:54 40.049052 -111.998856 202 8525ft 104kts
16-Feb-18 09:55 40.021684 -112.011162 202 8525ft 104kts
16-Feb-18 09:56 39.998895 -112.021410 202 8525ft 104kts
16-Feb-18 09:57 39.971848 -112.034824 213 8525ft 103kts
16-Feb-18 09:58 39.943954 -112.058717 215 8525ft 103kts
16-Feb-18 09:59 39.924007 -112.075789 214 8525ft 103kts
16-Feb-18 10:00 39.899358 -112.095932 213 8470ft 103kts
16-Feb-18 10:01 39.874805 -112.115572 212 8469ft 104kts
16-Feb-18 10:02 39.849969 -112.135307 212 8392ft 108kts
16-Feb-18 10:03 39.822064 -112.157414 215 8090ft 128kts
16-Feb-18 10:04 39.791022 -112.182009 214 7786ft 131kts
16-Feb-18 10:05 39.760254 -112.206228 214 7480ft 128kts
16-Feb-18 10:06 39.729796 -112.230276 214 7176ft 128kts
16-Feb-18 10:07 39.699388 -112.254266 214 6871ft 127kts
16-Feb-18 10:08 39.669198 -112.278066 214 6568ft 127kts
16-Feb-18 10:09 39.640326 -112.300759 214 6527ft 118kts
16-Feb-18 10:10 39.612333 -112.322834 214 6522ft 117kts
16-Feb-18 10:11 39.585165 -112.345874 216 6522ft 117kts
16-Feb-18 10:12 39.557951 -112.369166 216 6522ft 117kts
16-Feb-18 10:13 39.530970 -112.392262 216 6522ft 116kts
16-Feb-18 10:14 39.504195 -112.415251 216 6293ft 112kts
16-Feb-18 10:15 39.478259 -112.437634 216 5990ft 111kts
16-Feb-18 10:16 39.451685 -112.457640 188 5691ft 113kts
16-Feb-18 10:17 39.421172 -112.459985 185 5520ft 95kts
16-Feb-18 10:18 39.406880 -112.473058 270 5406ft 69kts
16-Feb-18 10:19 39.397718 -112.493171 231 5062ft 67kts
16-Feb-18 10:20 39.385940 -112.509002 226 4763ft 40kts
16-Feb-18 10:21 39.384785 -112.511826 314 4763ft 11kts
16-Feb-18 10:22 39.386439 -112.512758 213 4763ft 0kts
16-Feb-18 10:23 39.386439 -112.512758 213 4763ft 0kts

Navigation Log

Ident Type
Flight plan parsing failed, navigation log unavailable